createdAt,value
2022-09-12T00:02:34.323Z,7.25
2022-09-12T00:08:20.930Z,7.28
2022-09-12T00:14:10.796Z,7.43
2022-09-12T00:19:57.666Z,6.82
2022-09-12T00:25:45.770Z,7.28
2022-09-12T00:31:32.665Z,6.68
2022-09-12T00:37:19.265Z,6.25
2022-09-12T00:43:06.620Z,6.90
2022-09-12T00:49:04.163Z,6.60
2022-09-12T00:55:02.716Z,6.50
2022-09-12T01:00:49.890Z,6.78
2022-09-12T01:06:40.507Z,6.85
2022-09-12T01:12:27.360Z,7.55
2022-09-12T01:18:30.482Z,6.90
2022-09-12T01:24:20.206Z,7.38
2022-09-12T01:30:21.097Z,7.78
2022-09-12T01:36:42.931Z,8.43
2022-09-12T01:42:35.049Z,8.32
2022-09-12T01:48:27.989Z,8.43
2022-09-12T01:54:21.357Z,8.27
2022-09-12T02:00:11.550Z,8.48
2022-09-12T02:06:08.203Z,7.68
2022-09-12T02:11:59.149Z,7.45
2022-09-12T02:17:49.488Z,7.13
2022-09-12T02:23:46.165Z,7.43
2022-09-12T02:29:32.831Z,7.13
2022-09-12T02:35:33.935Z,7.32
2022-09-12T02:41:21.723Z,7.10
2022-09-12T02:47:17.114Z,7.35
2022-09-12T02:53:05.619Z,7.30
2022-09-12T02:58:52.980Z,7.43
2022-09-12T03:04:51.631Z,7.85
2022-09-12T03:10:50.765Z,8.30
2022-09-12T03:16:43.282Z,7.57
2022-09-12T03:22:53.426Z,7.10
2022-09-12T03:28:42.502Z,7.00
2022-09-12T03:34:29.162Z,7.10
2022-09-12T03:40:15.830Z,6.63
2022-09-12T03:46:02.577Z,7.20
2022-09-12T03:51:49.242Z,6.15
2022-09-12T03:57:35.897Z,6.80
2022-09-12T04:03:22.732Z,6.70
2022-09-12T04:09:09.552Z,6.63
2022-09-12T04:14:56.132Z,6.70
2022-09-12T04:20:42.682Z,6.68
2022-09-12T04:26:29.911Z,6.90
2022-09-12T04:32:16.663Z,7.43
2022-09-12T04:38:03.875Z,7.15
2022-09-12T04:44:16.769Z,6.85
2022-09-12T04:50:03.606Z,6.85
2022-09-12T04:55:50.179Z,6.55
2022-09-12T05:01:37.121Z,6.25
2022-09-12T05:07:23.934Z,6.28
2022-09-12T05:13:10.555Z,5.68
2022-09-12T05:18:58.364Z,5.93
2022-09-12T05:24:49.873Z,5.90
2022-09-12T05:30:37.152Z,5.00
2022-09-12T05:36:26.783Z,5.22
2022-09-12T05:42:13.411Z,4.65
2022-09-12T05:47:59.979Z,4.07
2022-09-12T05:53:48.855Z,3.83
2022-09-12T05:59:35.681Z,3.53
2022-09-12T06:05:22.786Z,3.92
2022-09-12T06:11:11.661Z,3.05
2022-09-12T06:16:58.401Z,3.28
2022-09-12T06:22:45.097Z,2.80
2022-09-12T06:28:32.883Z,3.35
2022-09-12T06:34:19.951Z,3.50
2022-09-12T06:40:08.535Z,3.00
2022-09-12T06:45:55.291Z,2.65
2022-09-12T06:51:42.611Z,2.60
2022-09-12T06:57:31.403Z,2.30
2022-09-12T07:03:18.589Z,2.58
2022-09-12T07:09:07.136Z,2.50
2022-09-12T07:14:53.839Z,2.70
2022-09-12T07:20:40.987Z,2.00
2022-09-12T07:26:29.482Z,2.22
2022-09-12T07:32:16.118Z,2.15
2022-09-12T07:38:02.983Z,1.95
2022-09-12T07:44:00.511Z,2.00
2022-09-12T07:49:47.658Z,1.80
2022-09-12T07:55:34.290Z,1.48
2022-09-12T08:01:24.797Z,1.95
2022-09-12T08:07:12.034Z,1.25
2022-09-12T08:12:59.027Z,1.63
2022-09-12T08:18:45.820Z,1.55
2022-09-12T08:24:32.656Z,1.90
2022-09-12T08:30:19.348Z,1.45
2022-09-12T08:36:21.342Z,1.67
2022-09-12T08:48:04.777Z,1.40
2022-09-12T08:53:54.676Z,1.38
2022-09-12T08:59:44.812Z,0.85
2022-09-12T09:05:40.284Z,1.13
2022-09-12T09:11:52.591Z,1.20
2022-09-12T09:17:43.345Z,1.08
2022-09-12T09:23:34.850Z,0.77
2022-09-12T09:29:26.746Z,1.20
2022-09-12T09:35:18.766Z,0.93
2022-09-12T09:41:30.122Z,0.93
2022-09-12T09:47:18.863Z,1.40
2022-09-12T09:53:10.418Z,1.08
2022-09-12T09:58:57.249Z,0.90
2022-09-12T10:04:55.180Z,1.30
2022-09-12T10:11:03.735Z,1.05
2022-09-12T10:16:53.308Z,1.00
2022-09-12T10:22:40.006Z,0.60
2022-09-12T10:28:39.743Z,1.10
2022-09-12T10:34:39.288Z,0.57
2022-09-12T10:40:37.775Z,1.10
2022-09-12T10:46:29.461Z,0.60
2022-09-12T10:52:25.656Z,0.97
2022-09-12T10:58:22.461Z,0.80
2022-09-12T11:04:30.713Z,0.70
2022-09-12T11:10:17.258Z,1.05
2022-09-12T11:16:16.179Z,0.85
2022-09-12T11:22:11.778Z,0.90
2022-09-12T11:28:18.670Z,0.75
2022-09-12T11:34:10.271Z,1.20
2022-09-12T11:40:02.779Z,0.70
2022-09-12T11:45:51.004Z,0.90
2022-09-12T11:52:13.113Z,0.73
2022-09-12T11:58:00.047Z,1.25
2022-09-12T12:03:48.921Z,0.70
2022-09-12T12:09:36.462Z,0.70
2022-09-12T12:15:25.243Z,0.80
2022-09-12T12:21:29.411Z,1.20
2022-09-12T12:40:29.691Z,1.15
2022-09-12T12:46:23.950Z,0.88
2022-09-12T12:52:17.775Z,0.80
2022-09-12T12:58:19.475Z,0.68
2022-09-12T13:04:15.736Z,1.10
2022-09-12T13:10:04.379Z,0.63
2022-09-12T13:15:52.755Z,0.60
2022-09-12T13:21:39.526Z,0.77
2022-09-12T13:27:26.290Z,1.17
2022-09-12T13:33:28.531Z,1.00
2022-09-12T13:39:27.710Z,1.00
2022-09-12T13:45:14.269Z,0.70
2022-09-12T13:51:03.443Z,0.70
2022-09-12T13:56:50.186Z,0.95
2022-09-12T14:02:37.144Z,0.60
2022-09-12T14:08:24.111Z,0.55
2022-09-12T14:14:31.430Z,0.75
2022-09-12T14:20:20.418Z,0.65
2022-09-12T14:26:12.302Z,0.60
2022-09-12T14:32:04.286Z,0.75
2022-09-12T14:37:51.727Z,0.93
2022-09-12T14:43:44.354Z,0.55
2022-09-12T14:49:34.984Z,0.63
2022-09-12T14:55:46.413Z,0.82
2022-09-12T15:01:33.084Z,0.88
2022-09-12T15:07:59.505Z,0.63
2022-09-12T15:13:46.417Z,0.88
2022-09-12T15:19:33.131Z,0.85
2022-09-12T15:25:19.972Z,0.57
2022-09-12T15:31:12.260Z,0.70
2022-09-12T15:36:58.849Z,1.15
2022-09-12T15:42:45.517Z,1.08
2022-09-12T15:48:32.924Z,0.82
2022-09-12T15:54:20.789Z,0.63
2022-09-12T16:00:08.022Z,0.95
2022-09-12T16:06:01.689Z,0.50
2022-09-12T16:11:50.337Z,0.80
2022-09-12T16:17:37.084Z,1.17
2022-09-12T16:23:24.677Z,1.10
2022-09-12T16:29:13.722Z,0.90
2022-09-12T16:35:00.905Z,0.90
2022-09-12T16:40:47.712Z,0.75
2022-09-12T16:46:34.761Z,0.60
2022-09-12T16:52:21.415Z,0.60
2022-09-12T16:58:08.012Z,0.70
2022-09-12T17:03:59.210Z,1.08
2022-09-12T17:09:48.034Z,0.85
2022-09-12T17:15:36.933Z,0.80
2022-09-12T17:21:23.829Z,1.00
2022-09-12T17:27:10.472Z,0.98
2022-09-12T17:32:57.182Z,0.60
2022-09-12T17:38:45.907Z,1.08
2022-09-12T17:44:35.471Z,0.75
2022-09-12T17:50:31.830Z,0.68
2022-09-12T17:56:20.350Z,0.77
2022-09-12T18:02:16.115Z,1.00
2022-09-12T18:08:02.705Z,1.38
2022-09-12T18:13:49.374Z,1.25
2022-09-12T18:19:36.309Z,0.90
2022-09-12T18:25:23.221Z,0.85
2022-09-12T18:31:16.119Z,0.95
2022-09-12T18:37:05.247Z,0.90
2022-09-12T18:42:52.996Z,0.82
2022-09-12T18:48:42.247Z,1.08
2022-09-12T18:54:29.343Z,7.57
2022-09-12T19:00:17.081Z,1.70
2022-09-12T19:06:12.876Z,0.90
2022-09-12T19:11:59.582Z,0.60
2022-09-12T19:17:46.257Z,0.88
2022-09-12T19:23:35.355Z,0.85
2022-09-12T19:29:22.114Z,0.70
2022-09-12T19:35:09.357Z,0.73
2022-09-12T19:40:58.001Z,0.90
2022-09-12T19:46:45.353Z,1.33
2022-09-12T19:52:32.025Z,0.98
2022-09-12T19:58:18.622Z,0.80
2022-09-12T20:04:06.813Z,1.20
2022-09-12T20:09:54.952Z,1.38
2022-09-12T20:15:41.583Z,1.27
2022-09-12T20:21:32.088Z,1.52
2022-09-12T20:27:18.979Z,1.35
2022-09-12T20:33:05.937Z,1.30
2022-09-12T20:38:56.930Z,1.60
2022-09-12T20:44:43.687Z,2.08
2022-09-12T20:50:30.275Z,1.90
2022-09-12T20:56:16.860Z,1.90
2022-09-12T21:02:03.508Z,1.83
2022-09-12T21:07:50.135Z,2.20
2022-09-12T21:13:37.093Z,2.35
2022-09-12T21:19:23.739Z,2.33
2022-09-12T21:25:10.878Z,2.22
2022-09-12T21:30:57.686Z,2.40
2022-09-12T21:36:44.494Z,2.25
2022-09-12T21:42:31.796Z,2.58
2022-09-12T21:48:18.426Z,2.60
2022-09-12T21:54:05.148Z,3.35
2022-09-12T21:59:51.876Z,3.78
2022-09-12T22:05:40.169Z,4.30
2022-09-12T22:11:27.055Z,3.92
2022-09-12T22:17:14.275Z,4.07
2022-09-12T22:23:24.388Z,3.58
2022-09-12T22:29:13.308Z,2.80
2022-09-12T22:35:00.008Z,2.65
2022-09-12T22:40:46.578Z,2.88
2022-09-12T22:46:33.753Z,2.80
2022-09-12T22:52:20.435Z,3.08
2022-09-12T22:58:07.141Z,3.50
2022-09-12T23:03:54.022Z,3.00
2022-09-12T23:09:41.281Z,3.17
2022-09-12T23:15:28.255Z,2.70
2022-09-12T23:21:16.802Z,3.33
2022-09-12T23:27:03.401Z,2.97
2022-09-12T23:32:50.295Z,3.58
2022-09-12T23:38:37.004Z,3.30
2022-09-12T23:44:23.755Z,2.95
2022-09-12T23:50:10.378Z,2.17
2022-09-12T23:55:57.616Z,2.85
